createdAt,value
2023-04-18T07:10:44.178Z,23.66
2023-04-18T07:13:11.920Z,23.72
2023-04-18T07:15:39.728Z,23.75
2023-04-18T07:18:07.518Z,23.77
2023-04-18T07:20:35.400Z,23.82
2023-04-18T07:23:03.120Z,23.83
2023-04-18T07:25:30.916Z,23.86
2023-04-18T07:28:00.210Z,23.87
2023-04-18T07:30:28.083Z,23.91
2023-04-18T07:32:55.978Z,23.92
2023-04-18T07:35:23.815Z,23.96
2023-04-18T07:37:51.550Z,23.99
2023-04-18T07:40:19.422Z,23.99
2023-04-18T07:42:47.155Z,24.03
2023-04-18T07:45:16.535Z,24.06
2023-04-18T07:47:44.533Z,24.09
2023-04-18T07:50:12.706Z,24.13
2023-04-18T07:52:40.512Z,24.12
2023-04-18T07:55:09.193Z,24.14
2023-04-18T07:57:36.725Z,23.83
2023-04-18T08:00:05.877Z,24.15
2023-04-18T08:02:35.065Z,24.17
2023-04-18T08:05:03.072Z,24.18
2023-04-18T08:07:30.986Z,24.20
2023-04-18T08:09:58.795Z,24.21
2023-04-18T08:12:26.592Z,24.25
2023-04-18T08:14:54.351Z,24.28
2023-04-18T08:17:23.241Z,24.30
2023-04-18T08:19:52.383Z,24.36
2023-04-18T08:22:20.178Z,24.37
2023-04-18T08:25:03.273Z,24.40
2023-04-18T08:27:32.540Z,24.47
2023-04-18T10:12:57.807Z,10.56
2023-04-18T10:15:27.815Z,10.70
2023-04-18T10:18:04.533Z,10.89
2023-04-18T10:20:34.784Z,11.23
2023-04-18T10:23:35.704Z,11.61
2023-04-18T10:26:03.915Z,12.07
2023-04-18T10:28:54.933Z,12.29
2023-04-18T10:31:23.786Z,12.60
2023-04-18T10:34:03.990Z,12.63
2023-04-18T10:36:33.058Z,12.51
2023-04-18T10:39:03.219Z,12.78
2023-04-18T10:41:32.452Z,12.71
2023-04-18T10:44:15.948Z,12.59
2023-04-18T10:46:45.062Z,12.83
2023-04-18T10:49:14.582Z,12.99
2023-04-18T10:51:42.660Z,12.90
2023-04-18T10:54:12.169Z,12.89
2023-04-18T10:56:40.379Z,12.84
2023-04-18T10:59:09.111Z,13.00
2023-04-18T11:01:39.263Z,12.76
2023-04-18T11:04:13.040Z,12.65
2023-04-18T11:06:50.247Z,13.04
2023-04-18T11:09:18.110Z,13.33
2023-04-18T11:11:45.909Z,13.64
2023-04-18T11:14:14.105Z,13.69
2023-04-18T11:16:43.520Z,13.71
2023-04-18T11:19:21.132Z,13.63
2023-04-18T11:21:48.945Z,13.72
2023-04-18T11:24:23.561Z,13.63
2023-04-18T11:26:55.819Z,13.78
2023-04-18T11:29:23.994Z,13.81
2023-04-18T11:31:56.609Z,13.54
2023-04-18T11:34:30.360Z,13.42
2023-04-18T11:36:58.776Z,13.55
2023-04-18T11:39:26.759Z,13.59
2023-04-18T11:41:56.531Z,13.73
2023-04-18T11:44:25.017Z,13.48
2023-04-18T11:46:54.322Z,13.50
2023-04-18T11:49:26.711Z,13.53
2023-04-18T11:51:54.650Z,13.58
2023-04-18T11:54:42.337Z,13.52
2023-04-18T11:57:22.003Z,13.38
2023-04-18T11:59:51.390Z,13.39
2023-04-18T12:02:21.703Z,13.37
2023-04-18T12:04:57.687Z,13.12
2023-04-18T12:07:37.116Z,13.05
2023-04-18T12:10:06.780Z,13.32
2023-04-18T12:12:35.009Z,13.28
2023-04-18T12:15:05.007Z,13.13
2023-04-18T12:17:34.238Z,13.14
2023-04-18T12:20:02.861Z,13.10
2023-04-18T12:22:41.981Z,13.25
2023-04-18T12:25:27.755Z,13.32
2023-04-18T12:27:58.076Z,13.71
2023-04-18T12:30:27.888Z,13.91
2023-04-18T12:32:58.785Z,14.10
2023-04-18T12:35:27.056Z,14.41
2023-04-18T12:37:56.433Z,14.35
2023-04-18T12:40:26.202Z,14.40
2023-04-18T12:42:54.964Z,14.57
2023-04-18T12:45:24.073Z,14.47
2023-04-18T12:47:52.139Z,13.96
2023-04-18T12:50:22.641Z,14.04
2023-04-18T12:52:51.949Z,14.14
2023-04-18T12:55:19.939Z,14.38
2023-04-18T12:57:47.732Z,14.63
2023-04-18T13:00:15.719Z,14.82
2023-04-18T13:02:45.977Z,14.78
2023-04-18T13:05:14.881Z,14.77
2023-04-18T13:07:44.408Z,14.82
2023-04-18T13:10:13.259Z,14.85
2023-04-18T13:12:42.287Z,14.78
2023-04-18T13:15:10.774Z,14.52
2023-04-18T13:17:39.337Z,14.73
2023-04-18T13:20:10.533Z,14.61
2023-04-18T13:22:39.110Z,14.55
2023-04-18T13:25:10.445Z,14.52
2023-04-18T13:27:40.889Z,14.72
2023-04-18T13:30:11.273Z,14.71
2023-04-18T13:32:40.404Z,14.69
2023-04-18T13:35:09.672Z,15.04
2023-04-18T13:37:37.934Z,15.10
2023-04-18T13:40:09.456Z,14.92
2023-04-18T13:42:37.996Z,14.98
2023-04-18T13:45:07.418Z,14.87
2023-04-18T13:47:35.958Z,14.88
2023-04-18T13:50:04.003Z,14.84
2023-04-18T13:52:31.787Z,14.93
2023-04-18T13:54:59.937Z,14.60
2023-04-18T13:57:32.062Z,14.36
2023-04-18T14:00:00.098Z,14.43
2023-04-18T14:02:28.081Z,14.61
2023-04-18T14:04:56.168Z,14.53
2023-04-18T14:07:24.084Z,14.31
2023-04-18T14:09:53.390Z,14.21
2023-04-18T14:12:21.828Z,14.33
2023-04-18T14:14:50.989Z,14.26
2023-04-18T14:17:18.513Z,13.76
2023-04-18T14:19:46.426Z,13.79
2023-04-18T14:22:14.200Z,14.06
2023-04-18T14:24:42.017Z,14.34
2023-04-18T14:27:09.799Z,14.35
2023-04-18T14:29:37.559Z,14.38
2023-04-18T14:32:07.758Z,14.55
2023-04-18T14:34:38.940Z,14.82
2023-04-18T14:37:06.724Z,14.81
2023-04-18T14:39:34.631Z,15.06
2023-04-18T14:42:02.653Z,15.15
2023-04-18T14:44:31.602Z,15.07
2023-04-18T14:46:59.606Z,14.98
2023-04-18T14:49:29.074Z,14.95
2023-04-18T14:51:57.113Z,14.77
2023-04-18T14:54:24.995Z,15.17
2023-04-18T14:56:52.814Z,15.32
2023-04-18T14:59:20.751Z,15.59
2023-04-18T15:01:48.829Z,15.86
2023-04-18T15:04:16.945Z,15.90
2023-04-18T15:06:46.589Z,15.79
2023-04-18T15:09:15.343Z,15.72
2023-04-18T15:11:43.145Z,15.30
2023-04-18T15:14:11.004Z,15.24
2023-04-18T15:16:40.820Z,14.90
2023-04-18T15:19:08.790Z,15.14
2023-04-18T15:21:36.847Z,15.24
2023-04-18T15:24:06.470Z,15.28
2023-04-18T15:26:34.426Z,15.23
2023-04-18T15:29:03.489Z,15.25
2023-04-18T15:31:31.654Z,15.33
2023-04-18T15:33:59.576Z,15.42
2023-04-18T15:36:27.752Z,15.33
2023-04-18T15:38:55.639Z,15.15
2023-04-18T15:41:24.957Z,14.87
2023-04-18T15:43:53.661Z,14.79
2023-04-18T15:46:21.515Z,14.81
2023-04-18T15:48:49.279Z,14.83
2023-04-18T15:51:17.320Z,14.83
2023-04-18T15:53:45.175Z,14.80
2023-04-18T15:56:13.782Z,15.00
2023-04-18T15:58:42.926Z,14.84
2023-04-18T16:01:10.621Z,14.71
2023-04-18T16:03:38.730Z,15.02
2023-04-18T16:06:06.856Z,14.99
2023-04-18T16:08:34.688Z,15.00
2023-04-18T16:11:02.614Z,14.89
2023-04-18T16:13:30.552Z,14.87
2023-04-18T16:15:59.788Z,14.82
2023-04-18T16:18:27.629Z,14.64
2023-04-18T16:20:55.566Z,14.73
2023-04-18T16:23:23.445Z,14.77
2023-04-18T16:25:54.691Z,14.70
2023-04-18T16:28:22.833Z,14.84
2023-04-18T16:30:52.032Z,14.57
2023-04-18T16:33:25.787Z,14.56
2023-04-18T16:35:53.820Z,14.57
2023-04-18T16:38:23.544Z,14.63
2023-04-18T16:40:51.369Z,14.57
2023-04-18T16:43:19.144Z,14.47
2023-04-18T16:45:46.969Z,14.52
2023-04-18T16:48:14.802Z,14.47
2023-04-18T16:50:45.620Z,14.53
2023-04-18T16:53:13.512Z,14.52
2023-04-18T16:55:42.230Z,14.48
2023-04-18T16:58:10.110Z,14.51
2023-04-18T17:00:38.741Z,14.51
2023-04-18T17:03:09.858Z,14.42
2023-04-18T17:05:39.346Z,14.45
2023-04-18T17:08:11.776Z,14.41
2023-04-18T17:10:39.615Z,14.40
2023-04-18T17:13:07.784Z,14.34
2023-04-18T17:15:36.035Z,14.31
2023-04-18T17:18:04.038Z,14.31
2023-04-18T17:20:31.855Z,14.31
2023-04-18T17:22:59.683Z,14.27
2023-04-18T17:25:28.907Z,14.24
2023-04-18T17:27:56.460Z,13.96
2023-04-18T17:30:24.565Z,14.08
2023-04-18T17:32:52.778Z,14.01
2023-04-18T17:35:21.108Z,13.99
2023-04-18T17:37:50.283Z,13.92
2023-04-18T17:40:18.368Z,13.73
2023-04-18T17:42:47.579Z,13.83
2023-04-18T17:45:15.179Z,13.63
2023-04-18T17:47:43.089Z,13.73
2023-04-18T17:50:11.862Z,13.65
2023-04-18T17:52:39.718Z,13.57
2023-04-18T17:55:08.331Z,13.51
2023-04-18T17:57:36.282Z,13.54
2023-04-18T18:00:10.518Z,13.36
2023-04-18T18:02:38.779Z,13.35
2023-04-18T18:05:08.925Z,13.30
2023-04-18T18:07:38.323Z,13.19
2023-04-18T18:10:08.122Z,13.23
2023-04-18T18:12:38.116Z,13.03
2023-04-18T18:15:09.470Z,13.11
2023-04-18T18:17:37.407Z,13.15
2023-04-18T18:20:08.430Z,13.08
2023-04-18T18:22:36.358Z,12.99
2023-04-18T18:25:05.162Z,12.88
2023-04-18T18:27:32.915Z,12.89
2023-04-18T18:30:00.709Z,12.87
2023-04-18T18:32:30.095Z,12.80
2023-04-18T18:34:57.933Z,12.85
2023-04-18T18:37:26.652Z,12.75
2023-04-18T18:39:55.162Z,12.64
2023-04-18T18:42:22.982Z,12.68
2023-04-18T18:44:50.751Z,12.65
2023-04-18T18:47:19.271Z,12.65
2023-04-18T18:49:48.755Z,12.54
2023-04-18T18:52:17.615Z,12.53
2023-04-18T18:54:45.825Z,12.48
2023-04-18T18:57:16.923Z,12.45
2023-04-18T18:59:44.790Z,12.44
2023-04-18T19:02:12.748Z,12.42
2023-04-18T19:04:40.825Z,12.42
2023-04-18T19:07:10.115Z,12.37
2023-04-18T19:09:37.871Z,12.31
2023-04-18T19:12:06.495Z,12.32
2023-04-18T19:14:34.385Z,12.27
2023-04-18T19:17:02.196Z,12.26
2023-04-18T19:19:29.965Z,12.19
2023-04-18T19:21:57.919Z,12.20
2023-04-18T19:24:27.099Z,12.14
2023-04-18T19:26:54.879Z,12.12
2023-04-18T19:29:24.118Z,12.08
2023-04-18T19:31:51.907Z,11.90
2023-04-18T19:34:19.978Z,12.02
2023-04-18T19:36:47.734Z,12.02
2023-04-18T19:39:16.435Z,11.98
2023-04-18T19:41:46.045Z,11.91
2023-04-18T19:44:13.898Z,11.93
2023-04-18T19:46:41.730Z,11.86
2023-04-18T19:49:09.541Z,11.92
2023-04-18T19:51:37.351Z,11.83
2023-04-18T19:54:05.762Z,11.80
2023-04-18T19:56:33.614Z,11.79
2023-04-18T19:59:05.943Z,11.81
2023-04-18T20:01:34.052Z,11.81
2023-04-18T20:04:02.316Z,11.74
2023-04-18T20:06:31.019Z,11.75
2023-04-18T20:08:59.028Z,11.70
2023-04-18T20:11:26.934Z,11.67
2023-04-18T20:13:55.983Z,11.64
2023-04-18T20:16:25.336Z,11.64
2023-04-18T20:18:54.817Z,11.67
2023-04-18T20:21:22.978Z,11.66
2023-04-18T20:23:51.174Z,11.66
2023-04-18T20:26:19.430Z,11.48
2023-04-18T20:28:47.410Z,11.60
2023-04-18T20:31:15.571Z,11.59
2023-04-18T20:33:44.920Z,11.53
2023-04-18T20:36:14.150Z,11.36
2023-04-18T20:38:42.106Z,11.38
2023-04-18T20:41:10.909Z,11.42
2023-04-18T20:43:38.795Z,11.38
2023-04-18T20:46:06.996Z,11.29
2023-04-18T20:48:34.933Z,11.30
2023-04-18T20:51:04.145Z,11.30
2023-04-18T20:53:31.896Z,11.25
2023-04-18T20:56:01.620Z,11.28
2023-04-18T20:58:29.471Z,11.35
2023-04-18T21:00:57.273Z,11.35
2023-04-18T21:03:25.322Z,11.41
2023-04-18T21:05:53.696Z,11.29
2023-04-18T21:08:22.947Z,11.37
2023-04-18T21:10:50.650Z,11.32
2023-04-18T21:13:18.443Z,11.47
2023-04-18T21:15:46.297Z,11.39
2023-04-18T21:18:14.123Z,11.53
2023-04-18T21:20:41.886Z,11.42
2023-04-18T21:23:09.885Z,11.56
2023-04-18T21:25:39.064Z,11.61
2023-04-18T21:28:07.939Z,11.60
2023-04-18T21:30:35.748Z,11.63
2023-04-18T21:33:03.698Z,11.62
2023-04-18T21:35:31.563Z,11.64
2023-04-18T21:37:59.575Z,11.66
2023-04-18T21:40:30.607Z,11.63
2023-04-18T21:42:59.788Z,11.62
2023-04-18T21:45:27.734Z,11.67
2023-04-18T21:47:55.714Z,11.67
2023-04-18T21:50:23.740Z,11.62
2023-04-18T21:52:51.645Z,11.66
2023-04-18T21:55:19.537Z,11.68
2023-04-18T21:57:47.295Z,11.67
2023-04-18T22:00:17.447Z,11.70
2023-04-18T22:02:45.471Z,11.65
2023-04-18T22:05:13.988Z,11.66
2023-04-18T22:07:54.536Z,11.75
2023-04-18T22:10:25.073Z,11.72
2023-04-18T22:12:54.004Z,11.75
2023-04-18T22:15:23.721Z,11.79
2023-04-18T22:17:51.584Z,11.84
2023-04-18T22:20:19.518Z,11.79
2023-04-18T22:22:47.330Z,11.80
2023-04-18T22:25:15.473Z,11.83
2023-04-18T22:27:43.641Z,11.79
2023-04-18T22:30:12.622Z,11.82
2023-04-18T22:32:41.840Z,11.76
2023-04-18T22:35:09.943Z,11.76
2023-04-18T22:37:37.717Z,11.78
2023-04-18T22:40:06.322Z,11.81
2023-04-18T22:42:35.198Z,11.77
2023-04-18T22:45:04.918Z,11.83
2023-04-18T22:47:32.753Z,11.79
2023-04-18T22:50:02.062Z,11.78
2023-04-18T22:52:30.029Z,11.66
2023-04-18T22:54:57.829Z,11.77
2023-04-18T22:57:25.875Z,11.76
2023-04-18T22:59:53.642Z,11.74
2023-04-18T23:02:21.533Z,11.73
2023-04-18T23:04:50.503Z,11.81
2023-04-18T23:07:19.877Z,11.77
2023-04-18T23:09:47.440Z,11.70
2023-04-18T23:12:15.304Z,11.81
2023-04-18T23:14:43.074Z,11.80
2023-04-18T23:17:10.887Z,11.81
2023-04-18T23:19:38.673Z,11.76
2023-04-18T23:22:06.458Z,11.73
2023-04-18T23:24:35.615Z,11.79
2023-04-18T23:27:03.354Z,11.69
2023-04-18T23:29:31.151Z,11.79
2023-04-18T23:31:58.960Z,11.80
2023-04-18T23:34:26.693Z,11.78
2023-04-18T23:36:54.445Z,11.75
2023-04-18T23:39:22.282Z,11.80
2023-04-18T23:41:51.427Z,11.78
2023-04-18T23:44:19.246Z,11.79
2023-04-18T23:46:48.141Z,11.84
2023-04-18T23:49:16.262Z,11.84
2023-04-18T23:51:43.985Z,11.83
2023-04-18T23:54:11.835Z,11.85
2023-04-18T23:56:39.629Z,11.83
2023-04-18T23:59:08.800Z,11.91
